Gsp King — ZDGY7 — position and weather

sailwx.info

Track history (hours):
 
Tides and Currents Weather Stations Pressure Air Temp Water Temp Dewpoint Dewpoint Depression Visibility Wind Speed Wind Dir Waves Ship Positions

Gsp King

Last reported at 2018-Feb-23 11:28 UTC. Time now 2018-Feb-24 06:50 UTC.
Position N 44°32' E 029°28'.

Length 70 m; draft 5.8 m.

Type: Tug. MMSI: 236290000.

Date/timePositionNaut miles runAvg speedWind from/ knotsBaromVisibWave heightAir tempDewpointWater temp
2018-Feb-23 11:28N 44°32' E 029°28'5 1.5
2018-Feb-23 08:04N 44°35' E 029°22'1 9.1
2018-Feb-23 08:00N 44°36' E 029°22'1 0.7
2018-Feb-23 07:06N 44°36' E 029°21'1 8.0
2018-Feb-23 07:00N 44°36' E 029°20'1 0.1
2018-Feb-23 00:28N 44°35' E 029°19'9 3.6
2018-Feb-22 21:55N 44°26' E 029°17'3 8.1
2018-Feb-22 21:30N 44°24' E 029°14'4 7.9
2018-Feb-22 21:00N 44°22' E 029°09'4 7.9
2018-Feb-22 20:30N 44°19' E 029°05'4 7.8
2018-Feb-22 20:00N 44°17' E 029°01'4 7.6
2018-Feb-22 19:30N 44°15' E 028°56'4 7.4
2018-Feb-22 19:00N 44°13' E 028°52'4 7.5
2018-Feb-22 18:30N 44°10' E 028°48'4 7.6
2018-Feb-22 18:00N 44°07' E 028°45'3 5.6
2018-Feb-22 17:30N 44°07' E 028°41'3 6.4
2018-Feb-22 17:00N 44°10' E 028°39'0 0.0
2018-Feb-22 16:30N 44°10' E 028°39'0 0.0
2018-Feb-22 16:00N 44°10' E 028°39'0 0.0
2018-Feb-22 15:27N 44°10' E 028°39'0 0.0
2018-Feb-22 15:00N 44°10' E 028°39'0 0.0
2018-Feb-22 14:30N 44°10' E 028°39'0 0.0
2018-Feb-22 14:00N 44°10' E 028°39'0 0.0
2018-Feb-22 13:30N 44°10' E 028°39'0 0.0
2018-Feb-22 13:00N 44°10' E 028°39'0 0.0
2018-Feb-22 12:30N 44°10' E 028°39'0 0.0
2018-Feb-22 12:00N 44°10' E 028°39'0 0.0
2018-Feb-22 11:31N 44°10' E 028°39'0 0.2
2018-Feb-22 11:01N 44°10' E 028°39'0 0.2
2018-Feb-22 10:28N 44°10' E 028°39'0 0.0
2018-Feb-22 09:58N 44°10' E 028°39'0 0.1
2018-Feb-22 09:28N 44°10' E 028°39'0 0.0
2018-Feb-22 08:58N 44°10' E 028°39'0 0.0
2018-Feb-22 08:28N 44°10' E 028°39'0 0.0
2018-Feb-22 07:58N 44°10' E 028°39'0 0.0
2018-Feb-22 07:28N 44°10' E 028°39'0 0.0
2018-Feb-22 06:58N 44°10' E 028°39'0 0.0
2018-Feb-22 06:28N 44°10' E 028°39'0 0.0
2018-Feb-22 05:58N 44°10' E 028°39'0 0.0
2018-Feb-22 05:28N 44°10' E 028°39'0 0.0
2018-Feb-22 04:58N 44°10' E 028°39'0 0.0
2018-Feb-22 04:28N 44°10' E 028°39'0 0.0
2018-Feb-22 03:58N 44°10' E 028°39'0 0.0
2018-Feb-22 03:28N 44°10' E 028°39'0 0.0
2018-Feb-22 02:58N 44°10' E 028°39'0 0.0
2018-Feb-22 02:28N 44°10' E 028°39'0 0.0
2018-Feb-22 01:58N 44°10' E 028°39'0 0.0
2018-Feb-22 01:28N 44°10' E 028°39'0 0.0
2018-Feb-22 00:58N 44°10' E 028°39'0 0.0
2018-Feb-22 00:28N 44°10' E 028°39'0 0.0
2018-Feb-21 23:58N 44°10' E 028°39'0 0.0
2018-Feb-21 23:28N 44°10' E 028°39'0 0.0
2018-Feb-21 22:58N 44°10' E 028°39'0 0.0
2018-Feb-21 22:31N 44°10' E 028°39'0 0.0
2018-Feb-21 22:01N 44°10' E 028°39'0 0.1
2018-Feb-21 21:30N 44°10' E 028°39'0 0.1
2018-Feb-21 21:00N 44°10' E 028°39'0 0.0
2018-Feb-21 20:30N 44°10' E 028°39'0 0.0
2018-Feb-21 20:00N 44°10' E 028°39'0 0.0
2018-Feb-21 19:30N 44°10' E 028°39'0 0.0
2018-Feb-21 19:00N 44°10' E 028°39'0 0.0
2018-Feb-21 18:30N 44°10' E 028°39'0 0.0
2018-Feb-21 18:00N 44°10' E 028°39'0 0.0
2018-Feb-21 17:30N 44°10' E 028°39'0 0.0
2018-Feb-21 17:00N 44°10' E 028°39'0 0.0
2018-Feb-21 16:30N 44°10' E 028°39'0 0.0
2018-Feb-21 16:00N 44°10' E 028°39'0 0.0
2018-Feb-21 15:30N 44°10' E 028°39'0 0.0
2018-Feb-21 15:00N 44°10' E 028°39'0 0.0
2018-Feb-21 14:30N 44°10' E 028°39'0 0.0
2018-Feb-21 14:00N 44°10' E 028°39'0 0.0
2018-Feb-21 13:30N 44°10' E 028°39'0 0.0
2018-Feb-21 13:00N 44°10' E 028°39'0 0.0
2018-Feb-21 12:30N 44°10' E 028°39'0 0.0
2018-Feb-21 12:00N 44°10' E 028°39'0 0.0
2018-Feb-21 11:30N 44°10' E 028°39'0 0.0
2018-Feb-21 11:00N 44°10' E 028°39'0 0.0
2018-Feb-21 10:30N 44°10' E 028°39'0 0.0
2018-Feb-21 10:00N 44°10' E 028°39'0 0.0
2018-Feb-21 09:30N 44°10' E 028°39'0 0.0
2018-Feb-21 09:00N 44°10' E 028°39'0 0.0
2018-Feb-21 08:30N 44°10' E 028°39'0 0.0
2018-Feb-21 08:00N 44°10' E 028°39'0 0.0
2018-Feb-21 07:30N 44°10' E 028°39'0 0.0
2018-Feb-21 07:00N 44°10' E 028°39'0 0.0
2018-Feb-21 06:30N 44°10' E 028°39'0 0.0
2018-Feb-21 06:00N 44°10' E 028°39'0 0.0
2018-Feb-21 05:27N 44°10' E 028°39'0 0.0
2018-Feb-21 05:00N 44°10' E 028°39'0 0.0
2018-Feb-21 04:30N 44°10' E 028°39'0 0.0
2018-Feb-21 04:00N 44°10' E 028°39'0 0.0
2018-Feb-21 03:30N 44°10' E 028°39'0 0.0
2018-Feb-21 03:00N 44°10' E 028°39'0 0.0
2018-Feb-21 02:30N 44°10' E 028°39'0 0.0
2018-Feb-21 02:00N 44°10' E 028°39'0 0.0
2018-Feb-21 01:27N 44°10' E 028°39'0 0.0
2018-Feb-21 01:00N 44°10' E 028°39'0 0.0
2018-Feb-21 00:30N 44°10' E 028°39'0 0.0
2018-Feb-21 00:00N 44°10' E 028°39'0 0.0
2018-Feb-20 23:30N 44°10' E 028°39'0 0.0
2018-Feb-20 23:00N 44°10' E 028°39'0 0.0
2018-Feb-20 22:30N 44°10' E 028°39'0 0.0
2018-Feb-20 22:00N 44°10' E 028°39'0 0.0
2018-Feb-20 21:30N 44°10' E 028°39'0 0.0
2018-Feb-20 21:00N 44°10' E 028°39'0 0.0
2018-Feb-20 20:30N 44°10' E 028°39'0 0.0
2018-Feb-20 20:00N 44°10' E 028°39'0 0.0
2018-Feb-20 19:30N 44°10' E 028°39'0 0.0
2018-Feb-20 19:00N 44°10' E 028°39'0 0.0
2018-Feb-20 18:30N 44°10' E 028°39'0 0.0
2018-Feb-20 18:00N 44°10' E 028°39'0 0.0
2018-Feb-20 17:30N 44°10' E 028°39'0 0.0
2018-Feb-20 17:00N 44°10' E 028°39'0 0.0
2018-Feb-20 16:30N 44°10' E 028°39'0 0.0
2018-Feb-20 16:00N 44°10' E 028°39'0 0.0
2018-Feb-20 15:30N 44°10' E 028°39'0 0.0
2018-Feb-20 15:00N 44°10' E 028°39'0 0.0
2018-Feb-20 14:30N 44°10' E 028°39'0 0.0
2018-Feb-20 14:00N 44°10' E 028°39'0 0.0
2018-Feb-20 13:30N 44°10' E 028°39'0 0.0
2018-Feb-20 13:00N 44°10' E 028°39'0 0.0
2018-Feb-20 12:30N 44°10' E 028°39'0 0.0
2018-Feb-20 12:00N 44°10' E 028°39'0 0.0
2018-Feb-20 11:29N 44°10' E 028°39'0 0.0
2018-Feb-20 10:59N 44°10' E 028°39'0 0.0
2018-Feb-20 10:29N 44°10' E 028°39'0 0.0
2018-Feb-20 09:59N 44°10' E 028°39'0 0.0
2018-Feb-20 09:29N 44°10' E 028°39'0 0.0
2018-Feb-20 08:59N 44°10' E 028°39'0 0.0
2018-Feb-20 08:23N 44°10' E 028°39'0 0.0
2018-Feb-20 07:59N 44°10' E 028°39'0 0.0
2018-Feb-20 07:29N 44°10' E 028°39'0 0.0
2018-Feb-20 06:59N 44°10' E 028°39'0 0.0
2018-Feb-20 06:23N 44°10' E 028°39'0 0.0
2018-Feb-20 05:59N 44°10' E 028°39'0 0.0
2018-Feb-20 05:29N 44°10' E 028°39'0 0.0
2018-Feb-20 04:59N 44°10' E 028°39'0 0.0
2018-Feb-20 04:29N 44°10' E 028°39'0 0.0
2018-Feb-20 03:59N 44°10' E 028°39'0 0.0
2018-Feb-20 03:29N 44°10' E 028°39'0 0.0
2018-Feb-20 02:59N 44°10' E 028°39'0 0.0
2018-Feb-20 02:29N 44°10' E 028°39'0 0.0
2018-Feb-20 01:59N 44°10' E 028°39'0 0.0
2018-Feb-20 01:29N 44°10' E 028°39'0 0.0
2018-Feb-20 00:59N 44°10' E 028°39'0 0.0
2018-Feb-20 00:29N 44°10' E 028°39'0 0.0
2018-Feb-19 23:59N 44°10' E 028°39'0 0.0
2018-Feb-19 23:29N 44°10' E 028°39'0 0.0
2018-Feb-19 22:59N 44°10' E 028°39'0 0.0
2018-Feb-19 22:29N 44°10' E 028°39'0 0.0
2018-Feb-19 21:59N 44°10' E 028°39'0 0.0
2018-Feb-19 21:23N 44°10' E 028°39'0 0.0
2018-Feb-19 20:59N 44°10' E 028°39'0 0.0
2018-Feb-19 20:29N 44°10' E 028°39'0 0.0
2018-Feb-19 19:59N 44°10' E 028°39'0 0.0
2018-Feb-19 19:29N 44°10' E 028°39'0 0.0
2018-Feb-19 18:59N 44°10' E 028°39'0 0.0
2018-Feb-19 18:29N 44°10' E 028°39'0 0.0
2018-Feb-19 17:59N 44°10' E 028°39'0 0.0
2018-Feb-19 17:29N 44°10' E 028°39'0 0.0
2018-Feb-19 16:59N 44°10' E 028°39'0 0.0
2018-Feb-19 16:29N 44°10' E 028°39'0 0.0
2018-Feb-19 15:59N 44°10' E 028°39'0 0.0
2018-Feb-19 15:29N 44°10' E 028°39'0 0.0
2018-Feb-19 14:59N 44°10' E 028°39'0 0.0
2018-Feb-19 14:29N 44°10' E 028°39'0 0.0
2018-Feb-19 13:59N 44°10' E 028°39'0 0.0
2018-Feb-19 13:29N 44°10' E 028°39'0 0.0
2018-Feb-19 12:59N 44°10' E 028°39'0 0.0
2018-Feb-19 12:29N 44°10' E 028°39'0 0.0
2018-Feb-19 11:59N 44°10' E 028°39'0 0.2
2018-Feb-19 11:29N 44°10' E 028°39'0 0.2
2018-Feb-19 10:59N 44°10' E 028°39'0 0.0
2018-Feb-19 10:29N 44°10' E 028°39'0 0.0
2018-Feb-19 09:59N 44°10' E 028°39'0 0.0
2018-Feb-19 09:29N 44°10' E 028°39'0 0.0
2018-Feb-19 08:59N 44°10' E 028°39'0 0.0
2018-Feb-19 08:23N 44°10' E 028°39'0 0.0
2018-Feb-19 07:59N 44°10' E 028°39'0 0.0
2018-Feb-19 07:29N 44°10' E 028°39'0 0.0
2018-Feb-19 06:56N 44°10' E 028°39'0 0.0
2018-Feb-19 06:29N 44°10' E 028°39'0 0.0
2018-Feb-19 05:59N 44°10' E 028°39'0 0.0
2018-Feb-19 05:26N 44°10' E 028°39'0 0.0
2018-Feb-19 04:59N 44°10' E 028°39'0 0.0
2018-Feb-19 04:29N 44°10' E 028°39'0 0.0
2018-Feb-19 03:59N 44°10' E 028°39'0 0.0
2018-Feb-19 03:29N 44°10' E 028°39'0 0.0
2018-Feb-19 02:59N 44°10' E 028°39'0 0.0
2018-Feb-19 02:29N 44°10' E 028°39'0 0.0
2018-Feb-19 01:59N 44°10' E 028°39'0 0.0
2018-Feb-19 01:29N 44°10' E 028°39'0 0.0
2018-Feb-19 00:58N 44°10' E 028°39'0 0.0
2018-Feb-19 00:25N 44°10' E 028°39'0 0.0
2018-Feb-18 23:58N 44°10' E 028°39'0 0.0
2018-Feb-18 23:28N 44°10' E 028°39'0 0.0
2018-Feb-18 22:58N 44°10' E 028°39'0 0.0
2018-Feb-18 22:25N 44°10' E 028°39'0 0.0
2018-Feb-18 21:58N 44°10' E 028°39'0 0.0
2018-Feb-18 21:25N 44°10' E 028°39'0 0.0
2018-Feb-18 20:58N 44°10' E 028°39'0 0.0
2018-Feb-18 20:28N 44°10' E 028°39'0 0.0
2018-Feb-18 19:58N 44°10' E 028°39'0 0.0
2018-Feb-18 19:28N 44°10' E 028°39'0 0.0
2018-Feb-18 18:58N 44°10' E 028°39'0 0.0
2018-Feb-18 18:25N 44°10' E 028°39'0 0.0
2018-Feb-18 17:58N 44°10' E 028°39'0 0.0
2018-Feb-18 17:28N 44°10' E 028°39'0 0.0
2018-Feb-18 16:58N 44°10' E 028°39'0 0.0
2018-Feb-18 16:28N 44°10' E 028°39'0 0.0
2018-Feb-18 15:58N 44°10' E 028°39'0 0.0
2018-Feb-18 15:28N 44°10' E 028°39'0 0.0
2018-Feb-18 14:58N 44°10' E 028°39'0 0.0
2018-Feb-18 14:28N 44°10' E 028°39'0 0.0
2018-Feb-18 13:58N 44°10' E 028°39'0 0.0
2018-Feb-18 13:28N 44°10' E 028°39'0 0.0
2018-Feb-18 12:58N 44°10' E 028°39'0 0.0
2018-Feb-18 12:28N 44°10' E 028°39'0 0.0
2018-Feb-18 11:58N 44°10' E 028°39'0 0.0
2018-Feb-18 11:28N 44°10' E 028°39'0 0.0
2018-Feb-18 10:58N 44°10' E 028°39'0 0.0
2018-Feb-18 10:25N 44°10' E 028°39'0 0.0
2018-Feb-18 09:58N 44°10' E 028°39'0 0.0
2018-Feb-18 09:28N 44°10' E 028°39'0 0.0
2018-Feb-18 08:58N 44°10' E 028°39'0 0.0
2018-Feb-18 08:25N 44°10' E 028°39'0 0.0
2018-Feb-18 07:58N 44°10' E 028°39'0 0.0
2018-Feb-18 07:28N 44°10' E 028°39'0 0.0
2018-Feb-18 06:58N 44°10' E 028°39'0 0.0
2018-Feb-18 06:28N 44°10' E 028°39'0 0.0
2018-Feb-18 05:58N 44°10' E 028°39'0 0.0
2018-Feb-18 05:28N 44°10' E 028°39'0 0.0
2018-Feb-18 04:55N 44°10' E 028°39'0 0.0
2018-Feb-18 04:28N 44°10' E 028°39'0 0.0
2018-Feb-18 03:58N 44°10' E 028°39'0 0.0
2018-Feb-18 03:28N 44°10' E 028°39'0 0.0
2018-Feb-18 02:58N 44°10' E 028°39'0 0.0
2018-Feb-18 02:28N 44°10' E 028°39'0 0.0
2018-Feb-18 01:58N 44°10' E 028°39'0 0.0
2018-Feb-18 01:28N 44°10' E 028°39'0 0.0
2018-Feb-18 00:55N 44°10' E 028°39'0 0.0
2018-Feb-18 00:28N 44°10' E 028°39'0 0.0
2018-Feb-17 23:55N 44°10' E 028°39'0 0.0
2018-Feb-17 23:28N 44°10' E 028°39'0 0.0
2018-Feb-17 22:58N 44°10' E 028°39'0 0.0
2018-Feb-17 22:28N 44°10' E 028°39'0 0.0
2018-Feb-17 21:58N 44°10' E 028°39'0 0.0
2018-Feb-17 21:28N 44°10' E 028°39'0 0.0
2018-Feb-17 20:58N 44°10' E 028°39'0 0.0
2018-Feb-17 20:28N 44°10' E 028°39'0 0.0
2018-Feb-17 20:00N 44°10' E 028°39'0 0.7
2018-Feb-17 19:30N 44°10' E 028°39'4 8.5
2018-Feb-17 19:00N 44°06' E 028°42'4 7.6
2018-Feb-17 18:30N 44°07' E 028°47'5 9.4
2018-Feb-17 18:00N 44°11' E 028°52'5 9.3
2018-Feb-17 17:30N 44°14' E 028°56'5 9.6
2018-Feb-17 17:00N 44°17' E 029°01'5 9.7
2018-Feb-17 16:30N 44°21' E 029°06'5 9.6
2018-Feb-17 16:00N 44°23' E 029°12'510.0
2018-Feb-17 15:30N 44°26' E 029°17'510.2
2018-Feb-17 15:00N 44°30' E 029°23'4 6.7
2018-Feb-17 14:23N 44°33' E 029°27'1 0.6
2018-Feb-17 12:16N 44°32' E 029°28'2 8.6
2018-Feb-17 12:00N 44°31' E 029°31'4 9.2
2018-Feb-17 11:30N 44°29' E 029°37'1 2.8
2018-Feb-17 11:00N 44°29' E 029°39'5 8.1
2018-Feb-17 10:24N 44°31' E 029°32'3 2.2
2018-Feb-17 08:53N 44°32' E 029°28'2 4.4
2018-Feb-17 08:28N 44°31' E 029°30'2 0.9
2018-Feb-17 06:13N 44°33' E 029°31'2 0.3
2018-Feb-16 22:49N 44°32' E 029°28'4 0.5
2018-Feb-16 15:38N 44°32' E 029°33'0 0.0
2018-Feb-16 15:30N 44°32' E 029°33'0 0.0
2018-Feb-16 14:54N 44°32' E 029°33'8 1.6
2018-Feb-16 09:48N 44°36' E 029°23'1 1.8
2018-Feb-16 09:23N 44°36' E 029°22'0 0.0
2018-Feb-16 09:00N 44°36' E 029°22'0 0.2
2018-Feb-16 08:28N 44°36' E 029°22'2 3.5
2018-Feb-16 08:00N 44°35' E 029°23'3 6.1
2018-Feb-16 07:28N 44°33' E 029°27'0 0.0
2018-Feb-16 06:57N 44°33' E 029°27'0 0.6
2018-Feb-16 06:30N 44°32' E 029°27'1 1.7
2018-Feb-16 05:56N 44°32' E 029°28'0 0.0
2018-Feb-16 05:29N 44°32' E 029°28'0 0.1
2018-Feb-16 05:01N 44°32' E 029°28'0 0.0
2018-Feb-15 23:36N 44°32' E 029°28'0 0.8
2018-Feb-15 23:31N 44°32' E 029°28'0 0.0
2018-Feb-15 23:00N 44°32' E 029°28'0 0.0
2018-Feb-15 22:30N 44°32' E 029°28'11 4.3
2018-Feb-15 19:58N 44°26' E 029°16'4 8.6
2018-Feb-15 19:31N 44°23' E 029°11'4 8.7
2018-Feb-15 19:00N 44°20' E 029°06'5 9.0
2018-Feb-15 18:30N 44°18' E 029°01'5 9.0
2018-Feb-15 18:01N 44°15' E 028°56'5 9.0
2018-Feb-15 17:30N 44°12' E 028°51'4 8.8
2018-Feb-15 17:00N 44°09' E 028°47'4 8.8
2018-Feb-15 16:30N 44°06' E 028°43'4 8.2
2018-Feb-15 16:00N 44°09' E 028°40'1 2.0
2018-Feb-15 15:30N 44°10' E 028°39'0 0.0
2018-Feb-15 15:00N 44°10' E 028°39'0 0.0
2018-Feb-15 14:30N 44°10' E 028°39'0 0.0
2018-Feb-15 14:00N 44°10' E 028°39'0 0.0
2018-Feb-15 13:31N 44°10' E 028°39'0 0.0
2018-Feb-15 13:01N 44°10' E 028°39'0 0.0
2018-Feb-15 12:31N 44°10' E 028°39'0 0.0
2018-Feb-15 12:00N 44°10' E 028°39'0 0.1
2018-Feb-15 11:30N 44°10' E 028°39'0 0.0
2018-Feb-15 11:00N 44°10' E 028°39'0 0.0
2018-Feb-15 10:30N 44°10' E 028°39'0 0.0
2018-Feb-15 10:00N 44°10' E 028°39'0 0.0
2018-Feb-15 09:30N 44°10' E 028°39'0 0.0
2018-Feb-15 09:00N 44°10' E 028°39'0 0.0
2018-Feb-15 08:31N 44°10' E 028°39'0 0.3
2018-Feb-15 08:00N 44°10' E 028°39'0 0.2
2018-Feb-15 07:29N 44°10' E 028°39'0 0.0
2018-Feb-15 06:59N 44°10' E 028°39'0 0.0
2018-Feb-15 06:23N 44°10' E 028°39'0 0.0
2018-Feb-15 05:59N 44°10' E 028°39'0 0.0
2018-Feb-15 05:29N 44°10' E 028°39'0 0.0
2018-Feb-15 04:59N 44°10' E 028°39'0 0.0
2018-Feb-15 04:29N 44°10' E 028°39'0 0.0
2018-Feb-15 03:59N 44°10' E 028°39'0 0.0
2018-Feb-15 03:29N 44°10' E 028°39'0 0.0
2018-Feb-15 02:59N 44°10' E 028°39'0 0.0
2018-Feb-15 02:29N 44°10' E 028°39'0 0.0
2018-Feb-15 01:59N 44°10' E 028°39'0 0.0
2018-Feb-15 01:29N 44°10' E 028°39'0 0.0
2018-Feb-15 00:59N 44°10' E 028°39'0 0.0
2018-Feb-15 00:29N 44°10' E 028°39'0 0.0
2018-Feb-14 23:59N 44°10' E 028°39'0 0.0
2018-Feb-14 23:29N 44°10' E 028°39'0 0.0
2018-Feb-14 22:59N 44°10' E 028°39'0 0.0
2018-Feb-14 22:29N 44°10' E 028°39'0 0.0
2018-Feb-14 21:59N 44°10' E 028°39'0 0.0
2018-Feb-14 21:29N 44°10' E 028°39'0 0.0
2018-Feb-14 20:59N 44°10' E 028°39'0 0.0
2018-Feb-14 20:25N 44°10' E 028°39'0 0.0
2018-Feb-14 19:55N 44°10' E 028°39'0 0.0
2018-Feb-14 19:28N 44°10' E 028°39'0 0.0
2018-Feb-14 18:58N 44°10' E 028°39'0 0.0
2018-Feb-14 18:28N 44°10' E 028°39'0 0.0
2018-Feb-14 18:00N 44°10' E 028°39'0 0.0
2018-Feb-14 17:30N 44°10' E 028°39'0 0.0
2018-Feb-14 17:00N 44°10' E 028°39'0 0.0
2018-Feb-14 16:30N 44°10' E 028°39'0 0.0
2018-Feb-14 16:00N 44°10' E 028°39'0 0.0
2018-Feb-14 15:30N 44°10' E 028°39'0 0.0
2018-Feb-14 15:00N 44°10' E 028°39'0 0.0
2018-Feb-14 14:30N 44°10' E 028°39'0 0.0
2018-Feb-14 14:00N 44°10' E 028°39'0 0.0
2018-Feb-14 13:30N 44°10' E 028°39'0 0.0
2018-Feb-14 13:00N 44°10' E 028°39'0 0.0
2018-Feb-14 12:30N 44°10' E 028°39'0 0.0
2018-Feb-14 12:00N 44°10' E 028°39'0 0.0
2018-Feb-14 11:30N 44°10' E 028°39'0 0.0
2018-Feb-14 11:00N 44°10' E 028°39'0 0.0
2018-Feb-14 10:30N 44°10' E 028°39'0 0.0
2018-Feb-14 10:00N 44°10' E 028°39'0 0.0
2018-Feb-14 09:30N 44°10' E 028°39'0 0.0
2018-Feb-14 09:00N 44°10' E 028°39'0 0.0
2018-Feb-14 08:30N 44°10' E 028°39'0 0.0
2018-Feb-14 08:00N 44°10' E 028°39'0 0.0
2018-Feb-14 07:30N 44°10' E 028°39'0 0.0
2018-Feb-14 07:00N 44°10' E 028°39'0 0.0
2018-Feb-14 06:30N 44°10' E 028°39'0 0.0
2018-Feb-14 06:00N 44°10' E 028°39'0 0.0
2018-Feb-14 05:30N 44°10' E 028°39'0 0.0
2018-Feb-14 05:00N 44°10' E 028°39'0 0.0
2018-Feb-14 04:30N 44°10' E 028°39'0 0.0
2018-Feb-14 04:00N 44°10' E 028°39'0 0.6
2018-Feb-14 03:30N 44°10' E 028°39'3 5.2
2018-Feb-14 03:00N 44°07' E 028°41'1 2.7
2018-Feb-14 02:29N 44°06' E 028°42'2 3.4
2018-Feb-14 02:00N 44°06' E 028°44'2 4.8
2018-Feb-14 01:30N 44°07' E 028°47'2 4.8
2018-Feb-14 01:00N 44°08' E 028°50'3 5.1
2018-Feb-14 00:30N 44°09' E 028°54'2 5.0
2018-Feb-14 00:00N 44°10' E 028°57'1 1.8
2018-Feb-13 23:30N 44°10' E 028°58'4 8.6
2018-Feb-13 23:00N 44°08' E 028°53'5 9.4
2018-Feb-13 22:30N 44°07' E 028°47'4 7.5
2018-Feb-13 22:00N 44°07' E 028°41'3 6.0
2018-Feb-13 21:28N 44°10' E 028°39'0 0.0
2018-Feb-13 20:58N 44°10' E 028°39'0 0.0
2018-Feb-13 20:28N 44°10' E 028°39'0 0.0
2018-Feb-13 19:58N 44°10' E 028°39'0 0.0
2018-Feb-13 19:28N 44°10' E 028°39'0 0.0
2018-Feb-13 18:58N 44°10' E 028°39'0 0.0
2018-Feb-13 18:28N 44°10' E 028°39'0 0.0
2018-Feb-13 17:58N 44°10' E 028°39'0 0.0
2018-Feb-13 17:28N 44°10' E 028°39'0 0.0
2018-Feb-13 16:58N 44°10' E 028°39'0 0.0
2018-Feb-13 16:28N 44°10' E 028°39'0 0.0
2018-Feb-13 15:58N 44°10' E 028°39'0 0.0
2018-Feb-13 15:25N 44°10' E 028°39'0 0.0
2018-Feb-13 14:58N 44°10' E 028°39'0 0.0
2018-Feb-13 14:28N 44°10' E 028°39'0 0.0
2018-Feb-13 13:55N 44°10' E 028°39'0 0.0
2018-Feb-13 13:28N 44°10' E 028°39'0 0.0
2018-Feb-13 12:55N 44°10' E 028°39'0 0.0
2018-Feb-13 12:28N 44°10' E 028°39'0 0.0
2018-Feb-13 12:01N 44°10' E 028°39'0 0.0
2018-Feb-13 11:31N 44°10' E 028°39'  
Track history (hours):
 
Tides and Currents Weather Stations Pressure Air Temp Water Temp Dewpoint Dewpoint Depression Visibility Wind Speed Wind Dir Waves Ship Positions

Gsp King

Last reported at 2018-Feb-23 11:28 UTC. Time now 2018-Feb-24 06:50 UTC.
Position N 44°32' E 029°28'.

Length 70 m; draft 5.8 m.

Type: Tug. MMSI: 236290000.

Date/timePositionNaut miles runAvg speedWind from/ knotsBaromVisibWave heightAir tempDewpointWater temp
2018-Feb-23 11:28N 44°32' E 029°28'5 1.5
2018-Feb-23 08:04N 44°35' E 029°22'1 9.1
2018-Feb-23 08:00N 44°36' E 029°22'1 0.7
2018-Feb-23 07:06N 44°36' E 029°21'1 8.0
2018-Feb-23 07:00N 44°36' E 029°20'1 0.1
2018-Feb-23 00:28N 44°35' E 029°19'9 3.6
2018-Feb-22 21:55N 44°26' E 029°17'3 8.1
2018-Feb-22 21:30N 44°24' E 029°14'4 7.9
2018-Feb-22 21:00N 44°22' E 029°09'4 7.9
2018-Feb-22 20:30N 44°19' E 029°05'4 7.8
2018-Feb-22 20:00N 44°17' E 029°01'4 7.6
2018-Feb-22 19:30N 44°15' E 028°56'4 7.4
2018-Feb-22 19:00N 44°13' E 028°52'4 7.5
2018-Feb-22 18:30N 44°10' E 028°48'4 7.6
2018-Feb-22 18:00N 44°07' E 028°45'3 5.6
2018-Feb-22 17:30N 44°07' E 028°41'3 6.4
2018-Feb-22 17:00N 44°10' E 028°39'0 0.0
2018-Feb-22 16:30N 44°10' E 028°39'0 0.0
2018-Feb-22 16:00N 44°10' E 028°39'0 0.0
2018-Feb-22 15:27N 44°10' E 028°39'0 0.0
2018-Feb-22 15:00N 44°10' E 028°39'0 0.0
2018-Feb-22 14:30N 44°10' E 028°39'0 0.0
2018-Feb-22 14:00N 44°10' E 028°39'0 0.0
2018-Feb-22 13:30N 44°10' E 028°39'0 0.0
2018-Feb-22 13:00N 44°10' E 028°39'0 0.0
2018-Feb-22 12:30N 44°10' E 028°39'0 0.0
2018-Feb-22 12:00N 44°10' E 028°39'0 0.0
2018-Feb-22 11:31N 44°10' E 028°39'0 0.2
2018-Feb-22 11:01N 44°10' E 028°39'0 0.2
2018-Feb-22 10:28N 44°10' E 028°39'0 0.0
2018-Feb-22 09:58N 44°10' E 028°39'0 0.1
2018-Feb-22 09:28N 44°10' E 028°39'0 0.0
2018-Feb-22 08:58N 44°10' E 028°39'0 0.0
2018-Feb-22 08:28N 44°10' E 028°39'0 0.0
2018-Feb-22 07:58N 44°10' E 028°39'0 0.0
2018-Feb-22 07:28N 44°10' E 028°39'0 0.0
2018-Feb-22 06:58N 44°10' E 028°39'0 0.0
2018-Feb-22 06:28N 44°10' E 028°39'0 0.0
2018-Feb-22 05:58N 44°10' E 028°39'0 0.0
2018-Feb-22 05:28N 44°10' E 028°39'0 0.0
2018-Feb-22 04:58N 44°10' E 028°39'0 0.0
2018-Feb-22 04:28N 44°10' E 028°39'0 0.0
2018-Feb-22 03:58N 44°10' E 028°39'0 0.0
2018-Feb-22 03:28N 44°10' E 028°39'0 0.0
2018-Feb-22 02:58N 44°10' E 028°39'0 0.0
2018-Feb-22 02:28N 44°10' E 028°39'0 0.0
2018-Feb-22 01:58N 44°10' E 028°39'0 0.0
2018-Feb-22 01:28N 44°10' E 028°39'0 0.0
2018-Feb-22 00:58N 44°10' E 028°39'0 0.0
2018-Feb-22 00:28N 44°10' E 028°39'0 0.0
2018-Feb-21 23:58N 44°10' E 028°39'0 0.0
2018-Feb-21 23:28N 44°10' E 028°39'0 0.0
2018-Feb-21 22:58N 44°10' E 028°39'0 0.0
2018-Feb-21 22:31N 44°10' E 028°39'0 0.0
2018-Feb-21 22:01N 44°10' E 028°39'0 0.1
2018-Feb-21 21:30N 44°10' E 028°39'0 0.1
2018-Feb-21 21:00N 44°10' E 028°39'0 0.0
2018-Feb-21 20:30N 44°10' E 028°39'0 0.0
2018-Feb-21 20:00N 44°10' E 028°39'0 0.0
2018-Feb-21 19:30N 44°10' E 028°39'0 0.0
2018-Feb-21 19:00N 44°10' E 028°39'0 0.0
2018-Feb-21 18:30N 44°10' E 028°39'0 0.0
2018-Feb-21 18:00N 44°10' E 028°39'0 0.0
2018-Feb-21 17:30N 44°10' E 028°39'0 0.0
2018-Feb-21 17:00N 44°10' E 028°39'0 0.0
2018-Feb-21 16:30N 44°10' E 028°39'0 0.0
2018-Feb-21 16:00N 44°10' E 028°39'0 0.0
2018-Feb-21 15:30N 44°10' E 028°39'0 0.0
2018-Feb-21 15:00N 44°10' E 028°39'0 0.0
2018-Feb-21 14:30N 44°10' E 028°39'0 0.0
2018-Feb-21 14:00N 44°10' E 028°39'0 0.0
2018-Feb-21 13:30N 44°10' E 028°39'0 0.0
2018-Feb-21 13:00N 44°10' E 028°39'0 0.0
2018-Feb-21 12:30N 44°10' E 028°39'0 0.0
2018-Feb-21 12:00N 44°10' E 028°39'0 0.0
2018-Feb-21 11:30N 44°10' E 028°39'0 0.0
2018-Feb-21 11:00N 44°10' E 028°39'0 0.0
2018-Feb-21 10:30N 44°10' E 028°39'0 0.0
2018-Feb-21 10:00N 44°10' E 028°39'0 0.0
2018-Feb-21 09:30N 44°10' E 028°39'0 0.0
2018-Feb-21 09:00N 44°10' E 028°39'0 0.0
2018-Feb-21 08:30N 44°10' E 028°39'0 0.0
2018-Feb-21 08:00N 44°10' E 028°39'0 0.0
2018-Feb-21 07:30N 44°10' E 028°39'0 0.0
2018-Feb-21 07:00N 44°10' E 028°39'0 0.0
2018-Feb-21 06:30N 44°10' E 028°39'0 0.0
2018-Feb-21 06:00N 44°10' E 028°39'0 0.0
2018-Feb-21 05:27N 44°10' E 028°39'0 0.0
2018-Feb-21 05:00N 44°10' E 028°39'0 0.0
2018-Feb-21 04:30N 44°10' E 028°39'0 0.0
2018-Feb-21 04:00N 44°10' E 028°39'0 0.0
2018-Feb-21 03:30N 44°10' E 028°39'0 0.0
2018-Feb-21 03:00N 44°10' E 028°39'0 0.0
2018-Feb-21 02:30N 44°10' E 028°39'0 0.0
2018-Feb-21 02:00N 44°10' E 028°39'0 0.0
2018-Feb-21 01:27N 44°10' E 028°39'0 0.0
2018-Feb-21 01:00N 44°10' E 028°39'0 0.0
2018-Feb-21 00:30N 44°10' E 028°39'0 0.0
2018-Feb-21 00:00N 44°10' E 028°39'0 0.0
2018-Feb-20 23:30N 44°10' E 028°39'0 0.0
2018-Feb-20 23:00N 44°10' E 028°39'0 0.0
2018-Feb-20 22:30N 44°10' E 028°39'0 0.0
2018-Feb-20 22:00N 44°10' E 028°39'0 0.0
2018-Feb-20 21:30N 44°10' E 028°39'0 0.0
2018-Feb-20 21:00N 44°10' E 028°39'0 0.0
2018-Feb-20 20:30N 44°10' E 028°39'0 0.0
2018-Feb-20 20:00N 44°10' E 028°39'0 0.0
2018-Feb-20 19:30N 44°10' E 028°39'0 0.0
2018-Feb-20 19:00N 44°10' E 028°39'0 0.0
2018-Feb-20 18:30N 44°10' E 028°39'0 0.0
2018-Feb-20 18:00N 44°10' E 028°39'0 0.0
2018-Feb-20 17:30N 44°10' E 028°39'0 0.0
2018-Feb-20 17:00N 44°10' E 028°39'0 0.0
2018-Feb-20 16:30N 44°10' E 028°39'0 0.0
2018-Feb-20 16:00N 44°10' E 028°39'0 0.0
2018-Feb-20 15:30N 44°10' E 028°39'0 0.0
2018-Feb-20 15:00N 44°10' E 028°39'0 0.0
2018-Feb-20 14:30N 44°10' E 028°39'0 0.0
2018-Feb-20 14:00N 44°10' E 028°39'0 0.0
2018-Feb-20 13:30N 44°10' E 028°39'0 0.0
2018-Feb-20 13:00N 44°10' E 028°39'0 0.0
2018-Feb-20 12:30N 44°10' E 028°39'0 0.0
2018-Feb-20 12:00N 44°10' E 028°39'0 0.0
2018-Feb-20 11:29N 44°10' E 028°39'0 0.0
2018-Feb-20 10:59N 44°10' E 028°39'0 0.0
2018-Feb-20 10:29N 44°10' E 028°39'0 0.0
2018-Feb-20 09:59N 44°10' E 028°39'0 0.0
2018-Feb-20 09:29N 44°10' E 028°39'0 0.0
2018-Feb-20 08:59N 44°10' E 028°39'0 0.0
2018-Feb-20 08:23N 44°10' E 028°39'0 0.0
2018-Feb-20 07:59N 44°10' E 028°39'0 0.0
2018-Feb-20 07:29N 44°10' E 028°39'0 0.0
2018-Feb-20 06:59N 44°10' E 028°39'0 0.0
2018-Feb-20 06:23N 44°10' E 028°39'0 0.0
2018-Feb-20 05:59N 44°10' E 028°39'0 0.0
2018-Feb-20 05:29N 44°10' E 028°39'0 0.0
2018-Feb-20 04:59N 44°10' E 028°39'0 0.0
2018-Feb-20 04:29N 44°10' E 028°39'0 0.0
2018-Feb-20 03:59N 44°10' E 028°39'0 0.0
2018-Feb-20 03:29N 44°10' E 028°39'0 0.0
2018-Feb-20 02:59N 44°10' E 028°39'0 0.0
2018-Feb-20 02:29N 44°10' E 028°39'0 0.0
2018-Feb-20 01:59N 44°10' E 028°39'0 0.0
2018-Feb-20 01:29N 44°10' E 028°39'0 0.0
2018-Feb-20 00:59N 44°10' E 028°39'0 0.0
2018-Feb-20 00:29N 44°10' E 028°39'0 0.0
2018-Feb-19 23:59N 44°10' E 028°39'0 0.0
2018-Feb-19 23:29N 44°10' E 028°39'0 0.0
2018-Feb-19 22:59N 44°10' E 028°39'0 0.0
2018-Feb-19 22:29N 44°10' E 028°39'0 0.0
2018-Feb-19 21:59N 44°10' E 028°39'0 0.0
2018-Feb-19 21:23N 44°10' E 028°39'0 0.0
2018-Feb-19 20:59N 44°10' E 028°39'0 0.0
2018-Feb-19 20:29N 44°10' E 028°39'0 0.0
2018-Feb-19 19:59N 44°10' E 028°39'0 0.0
2018-Feb-19 19:29N 44°10' E 028°39'0 0.0
2018-Feb-19 18:59N 44°10' E 028°39'0 0.0
2018-Feb-19 18:29N 44°10' E 028°39'0 0.0
2018-Feb-19 17:59N 44°10' E 028°39'0 0.0
2018-Feb-19 17:29N 44°10' E 028°39'0 0.0
2018-Feb-19 16:59N 44°10' E 028°39'0 0.0
2018-Feb-19 16:29N 44°10' E 028°39'0 0.0
2018-Feb-19 15:59N 44°10' E 028°39'0 0.0
2018-Feb-19 15:29N 44°10' E 028°39'0 0.0
2018-Feb-19 14:59N 44°10' E 028°39'0 0.0
2018-Feb-19 14:29N 44°10' E 028°39'0 0.0
2018-Feb-19 13:59N 44°10' E 028°39'0 0.0
2018-Feb-19 13:29N 44°10' E 028°39'0 0.0
2018-Feb-19 12:59N 44°10' E 028°39'0 0.0
2018-Feb-19 12:29N 44°10' E 028°39'0 0.0
2018-Feb-19 11:59N 44°10' E 028°39'0 0.2
2018-Feb-19 11:29N 44°10' E 028°39'0 0.2
2018-Feb-19 10:59N 44°10' E 028°39'0 0.0
2018-Feb-19 10:29N 44°10' E 028°39'0 0.0
2018-Feb-19 09:59N 44°10' E 028°39'0 0.0
2018-Feb-19 09:29N 44°10' E 028°39'0 0.0
2018-Feb-19 08:59N 44°10' E 028°39'0 0.0
2018-Feb-19 08:23N 44°10' E 028°39'0 0.0
2018-Feb-19 07:59N 44°10' E 028°39'0 0.0
2018-Feb-19 07:29N 44°10' E 028°39'0 0.0
2018-Feb-19 06:56N 44°10' E 028°39'0 0.0
2018-Feb-19 06:29N 44°10' E 028°39'0 0.0
2018-Feb-19 05:59N 44°10' E 028°39'0 0.0
2018-Feb-19 05:26N 44°10' E 028°39'0 0.0
2018-Feb-19 04:59N 44°10' E 028°39'0 0.0
2018-Feb-19 04:29N 44°10' E 028°39'0 0.0
2018-Feb-19 03:59N 44°10' E 028°39'0 0.0
2018-Feb-19 03:29N 44°10' E 028°39'0 0.0
2018-Feb-19 02:59N 44°10' E 028°39'0 0.0
2018-Feb-19 02:29N 44°10' E 028°39'0 0.0
2018-Feb-19 01:59N 44°10' E 028°39'0 0.0
2018-Feb-19 01:29N 44°10' E 028°39'0 0.0
2018-Feb-19 00:58N 44°10' E 028°39'0 0.0
2018-Feb-19 00:25N 44°10' E 028°39'0 0.0
2018-Feb-18 23:58N 44°10' E 028°39'0 0.0
2018-Feb-18 23:28N 44°10' E 028°39'0 0.0
2018-Feb-18 22:58N 44°10' E 028°39'0 0.0
2018-Feb-18 22:25N 44°10' E 028°39'0 0.0
2018-Feb-18 21:58N 44°10' E 028°39'0 0.0
2018-Feb-18 21:25N 44°10' E 028°39'0 0.0
2018-Feb-18 20:58N 44°10' E 028°39'0 0.0
2018-Feb-18 20:28N 44°10' E 028°39'0 0.0
2018-Feb-18 19:58N 44°10' E 028°39'0 0.0
2018-Feb-18 19:28N 44°10' E 028°39'0 0.0
2018-Feb-18 18:58N 44°10' E 028°39'0 0.0
2018-Feb-18 18:25N 44°10' E 028°39'0 0.0
2018-Feb-18 17:58N 44°10' E 028°39'0 0.0
2018-Feb-18 17:28N 44°10' E 028°39'0 0.0
2018-Feb-18 16:58N 44°10' E 028°39'0 0.0
2018-Feb-18 16:28N 44°10' E 028°39'0 0.0
2018-Feb-18 15:58N 44°10' E 028°39'0 0.0
2018-Feb-18 15:28N 44°10' E 028°39'0 0.0
2018-Feb-18 14:58N 44°10' E 028°39'0 0.0
2018-Feb-18 14:28N 44°10' E 028°39'0 0.0
2018-Feb-18 13:58N 44°10' E 028°39'0 0.0
2018-Feb-18 13:28N 44°10' E 028°39'0 0.0
2018-Feb-18 12:58N 44°10' E 028°39'0 0.0
2018-Feb-18 12:28N 44°10' E 028°39'0 0.0
2018-Feb-18 11:58N 44°10' E 028°39'0 0.0
2018-Feb-18 11:28N 44°10' E 028°39'0 0.0
2018-Feb-18 10:58N 44°10' E 028°39'0 0.0
2018-Feb-18 10:25N 44°10' E 028°39'0 0.0
2018-Feb-18 09:58N 44°10' E 028°39'0 0.0
2018-Feb-18 09:28N 44°10' E 028°39'0 0.0
2018-Feb-18 08:58N 44°10' E 028°39'0 0.0
2018-Feb-18 08:25N 44°10' E 028°39'0 0.0
2018-Feb-18 07:58N 44°10' E 028°39'0 0.0
2018-Feb-18 07:28N 44°10' E 028°39'0 0.0
2018-Feb-18 06:58N 44°10' E 028°39'0 0.0
2018-Feb-18 06:28N 44°10' E 028°39'0 0.0
2018-Feb-18 05:58N 44°10' E 028°39'0 0.0
2018-Feb-18 05:28N 44°10' E 028°39'0 0.0
2018-Feb-18 04:55N 44°10' E 028°39'0 0.0
2018-Feb-18 04:28N 44°10' E 028°39'0 0.0
2018-Feb-18 03:58N 44°10' E 028°39'0 0.0
2018-Feb-18 03:28N 44°10' E 028°39'0 0.0
2018-Feb-18 02:58N 44°10' E 028°39'0 0.0
2018-Feb-18 02:28N 44°10' E 028°39'0 0.0
2018-Feb-18 01:58N 44°10' E 028°39'0 0.0
2018-Feb-18 01:28N 44°10' E 028°39'0 0.0
2018-Feb-18 00:55N 44°10' E 028°39'0 0.0
2018-Feb-18 00:28N 44°10' E 028°39'0 0.0
2018-Feb-17 23:55N 44°10' E 028°39'0 0.0
2018-Feb-17 23:28N 44°10' E 028°39'0 0.0
2018-Feb-17 22:58N 44°10' E 028°39'0 0.0
2018-Feb-17 22:28N 44°10' E 028°39'0 0.0
2018-Feb-17 21:58N 44°10' E 028°39'0 0.0
2018-Feb-17 21:28N 44°10' E 028°39'0 0.0
2018-Feb-17 20:58N 44°10' E 028°39'0 0.0
2018-Feb-17 20:28N 44°10' E 028°39'0 0.0
2018-Feb-17 20:00N 44°10' E 028°39'0 0.7
2018-Feb-17 19:30N 44°10' E 028°39'4 8.5
2018-Feb-17 19:00N 44°06' E 028°42'4 7.6
2018-Feb-17 18:30N 44°07' E 028°47'5 9.4
2018-Feb-17 18:00N 44°11' E 028°52'5 9.3
2018-Feb-17 17:30N 44°14' E 028°56'5 9.6
2018-Feb-17 17:00N 44°17' E 029°01'5 9.7
2018-Feb-17 16:30N 44°21' E 029°06'5 9.6
2018-Feb-17 16:00N 44°23' E 029°12'510.0
2018-Feb-17 15:30N 44°26' E 029°17'510.2
2018-Feb-17 15:00N 44°30' E 029°23'4 6.7
2018-Feb-17 14:23N 44°33' E 029°27'1 0.6
2018-Feb-17 12:16N 44°32' E 029°28'2 8.6
2018-Feb-17 12:00N 44°31' E 029°31'4 9.2
2018-Feb-17 11:30N 44°29' E 029°37'1 2.8
2018-Feb-17 11:00N 44°29' E 029°39'5 8.1
2018-Feb-17 10:24N 44°31' E 029°32'3 2.2
2018-Feb-17 08:53N 44°32' E 029°28'2 4.4
2018-Feb-17 08:28N 44°31' E 029°30'2 0.9
2018-Feb-17 06:13N 44°33' E 029°31'2 0.3
2018-Feb-16 22:49N 44°32' E 029°28'4 0.5
2018-Feb-16 15:38N 44°32' E 029°33'0 0.0
2018-Feb-16 15:30N 44°32' E 029°33'0 0.0
2018-Feb-16 14:54N 44°32' E 029°33'8 1.6
2018-Feb-16 09:48N 44°36' E 029°23'1 1.8
2018-Feb-16 09:23N 44°36' E 029°22'0 0.0
2018-Feb-16 09:00N 44°36' E 029°22'0 0.2
2018-Feb-16 08:28N 44°36' E 029°22'2 3.5
2018-Feb-16 08:00N 44°35' E 029°23'3 6.1
2018-Feb-16 07:28N 44°33' E 029°27'0 0.0
2018-Feb-16 06:57N 44°33' E 029°27'0 0.6
2018-Feb-16 06:30N 44°32' E 029°27'1 1.7
2018-Feb-16 05:56N 44°32' E 029°28'0 0.0
2018-Feb-16 05:29N 44°32' E 029°28'0 0.1
2018-Feb-16 05:01N 44°32' E 029°28'0 0.0
2018-Feb-15 23:36N 44°32' E 029°28'0 0.8
2018-Feb-15 23:31N 44°32' E 029°28'0 0.0
2018-Feb-15 23:00N 44°32' E 029°28'0 0.0
2018-Feb-15 22:30N 44°32' E 029°28'11 4.3
2018-Feb-15 19:58N 44°26' E 029°16'4 8.6
2018-Feb-15 19:31N 44°23' E 029°11'4 8.7
2018-Feb-15 19:00N 44°20' E 029°06'5 9.0
2018-Feb-15 18:30N 44°18' E 029°01'5 9.0
2018-Feb-15 18:01N 44°15' E 028°56'5 9.0
2018-Feb-15 17:30N 44°12' E 028°51'4 8.8
2018-Feb-15 17:00N 44°09' E 028°47'4 8.8
2018-Feb-15 16:30N 44°06' E 028°43'4 8.2
2018-Feb-15 16:00N 44°09' E 028°40'1 2.0
2018-Feb-15 15:30N 44°10' E 028°39'0 0.0
2018-Feb-15 15:00N 44°10' E 028°39'0 0.0
2018-Feb-15 14:30N 44°10' E 028°39'0 0.0
2018-Feb-15 14:00N 44°10' E 028°39'0 0.0
2018-Feb-15 13:31N 44°10' E 028°39'0 0.0
2018-Feb-15 13:01N 44°10' E 028°39'0 0.0
2018-Feb-15 12:31N 44°10' E 028°39'0 0.0
2018-Feb-15 12:00N 44°10' E 028°39'0 0.1
2018-Feb-15 11:30N 44°10' E 028°39'0 0.0
2018-Feb-15 11:00N 44°10' E 028°39'0 0.0
2018-Feb-15 10:30N 44°10' E 028°39'0 0.0
2018-Feb-15 10:00N 44°10' E 028°39'0 0.0
2018-Feb-15 09:30N 44°10' E 028°39'0 0.0
2018-Feb-15 09:00N 44°10' E 028°39'0 0.0
2018-Feb-15 08:31N 44°10' E 028°39'0 0.3
2018-Feb-15 08:00N 44°10' E 028°39'0 0.2
2018-Feb-15 07:29N 44°10' E 028°39'0 0.0
2018-Feb-15 06:59N 44°10' E 028°39'0 0.0
2018-Feb-15 06:23N 44°10' E 028°39'0 0.0
2018-Feb-15 05:59N 44°10' E 028°39'0 0.0
2018-Feb-15 05:29N 44°10' E 028°39'0 0.0
2018-Feb-15 04:59N 44°10' E 028°39'0 0.0
2018-Feb-15 04:29N 44°10' E 028°39'0 0.0
2018-Feb-15 03:59N 44°10' E 028°39'0 0.0
2018-Feb-15 03:29N 44°10' E 028°39'0 0.0
2018-Feb-15 02:59N 44°10' E 028°39'0 0.0
2018-Feb-15 02:29N 44°10' E 028°39'0 0.0
2018-Feb-15 01:59N 44°10' E 028°39'0 0.0
2018-Feb-15 01:29N 44°10' E 028°39'0 0.0
2018-Feb-15 00:59N 44°10' E 028°39'0 0.0
2018-Feb-15 00:29N 44°10' E 028°39'0 0.0
2018-Feb-14 23:59N 44°10' E 028°39'0 0.0
2018-Feb-14 23:29N 44°10' E 028°39'0 0.0
2018-Feb-14 22:59N 44°10' E 028°39'0 0.0
2018-Feb-14 22:29N 44°10' E 028°39'0 0.0
2018-Feb-14 21:59N 44°10' E 028°39'0 0.0
2018-Feb-14 21:29N 44°10' E 028°39'0 0.0
2018-Feb-14 20:59N 44°10' E 028°39'0 0.0
2018-Feb-14 20:25N 44°10' E 028°39'0 0.0
2018-Feb-14 19:55N 44°10' E 028°39'0 0.0
2018-Feb-14 19:28N 44°10' E 028°39'0 0.0
2018-Feb-14 18:58N 44°10' E 028°39'0 0.0
2018-Feb-14 18:28N 44°10' E 028°39'0 0.0
2018-Feb-14 18:00N 44°10' E 028°39'0 0.0
2018-Feb-14 17:30N 44°10' E 028°39'0 0.0
2018-Feb-14 17:00N 44°10' E 028°39'0 0.0
2018-Feb-14 16:30N 44°10' E 028°39'0 0.0
2018-Feb-14 16:00N 44°10' E 028°39'0 0.0
2018-Feb-14 15:30N 44°10' E 028°39'0 0.0
2018-Feb-14 15:00N 44°10' E 028°39'0 0.0
2018-Feb-14 14:30N 44°10' E 028°39'0 0.0
2018-Feb-14 14:00N 44°10' E 028°39'0 0.0
2018-Feb-14 13:30N 44°10' E 028°39'0 0.0
2018-Feb-14 13:00N 44°10' E 028°39'0 0.0
2018-Feb-14 12:30N 44°10' E 028°39'0 0.0
2018-Feb-14 12:00N 44°10' E 028°39'0 0.0
2018-Feb-14 11:30N 44°10' E 028°39'0 0.0
2018-Feb-14 11:00N 44°10' E 028°39'0 0.0
2018-Feb-14 10:30N 44°10' E 028°39'0 0.0
2018-Feb-14 10:00N 44°10' E 028°39'0 0.0
2018-Feb-14 09:30N 44°10' E 028°39'0 0.0
2018-Feb-14 09:00N 44°10' E 028°39'0 0.0
2018-Feb-14 08:30N 44°10' E 028°39'0 0.0
2018-Feb-14 08:00N 44°10' E 028°39'0 0.0
2018-Feb-14 07:30N 44°10' E 028°39'0 0.0
2018-Feb-14 07:00N 44°10' E 028°39'0 0.0
2018-Feb-14 06:30N 44°10' E 028°39'0 0.0
2018-Feb-14 06:00N 44°10' E 028°39'0 0.0
2018-Feb-14 05:30N 44°10' E 028°39'0 0.0
2018-Feb-14 05:00N 44°10' E 028°39'0 0.0
2018-Feb-14 04:30N 44°10' E 028°39'0 0.0
2018-Feb-14 04:00N 44°10' E 028°39'0 0.6
2018-Feb-14 03:30N 44°10' E 028°39'3 5.2
2018-Feb-14 03:00N 44°07' E 028°41'1 2.7
2018-Feb-14 02:29N 44°06' E 028°42'2 3.4
2018-Feb-14 02:00N 44°06' E 028°44'2 4.8
2018-Feb-14 01:30N 44°07' E 028°47'2 4.8
2018-Feb-14 01:00N 44°08' E 028°50'3 5.1
2018-Feb-14 00:30N 44°09' E 028°54'2 5.0
2018-Feb-14 00:00N 44°10' E 028°57'1 1.8
2018-Feb-13 23:30N 44°10' E 028°58'4 8.6
2018-Feb-13 23:00N 44°08' E 028°53'5 9.4
2018-Feb-13 22:30N 44°07' E 028°47'4 7.5
2018-Feb-13 22:00N 44°07' E 028°41'3 6.0
2018-Feb-13 21:28N 44°10' E 028°39'0 0.0
2018-Feb-13 20:58N 44°10' E 028°39'0 0.0
2018-Feb-13 20:28N 44°10' E 028°39'0 0.0
2018-Feb-13 19:58N 44°10' E 028°39'0 0.0
2018-Feb-13 19:28N 44°10' E 028°39'0 0.0
2018-Feb-13 18:58N 44°10' E 028°39'0 0.0
2018-Feb-13 18:28N 44°10' E 028°39'0 0.0
2018-Feb-13 17:58N 44°10' E 028°39'0 0.0
2018-Feb-13 17:28N 44°10' E 028°39'0 0.0
2018-Feb-13 16:58N 44°10' E 028°39'0 0.0
2018-Feb-13 16:28N 44°10' E 028°39'0 0.0
2018-Feb-13 15:58N 44°10' E 028°39'0 0.0
2018-Feb-13 15:25N 44°10' E 028°39'0 0.0
2018-Feb-13 14:58N 44°10' E 028°39'0 0.0
2018-Feb-13 14:28N 44°10' E 028°39'0 0.0
2018-Feb-13 13:55N 44°10' E 028°39'0 0.0
2018-Feb-13 13:28N 44°10' E 028°39'0 0.0
2018-Feb-13 12:55N 44°10' E 028°39'0 0.0
2018-Feb-13 12:28N 44°10' E 028°39'0 0.0
2018-Feb-13 12:01N 44°10' E 028°39'0 0.0
2018-Feb-13 11:31N 44°10' E 028°39'  

Dump ship's entire track history